Rosedale, New York
Current Conditions -  °F | °C
As of 11:51 PM on Saturday 22 Nov 2014 (Local Time) from KJFK Reporting Station
Broken Clouds Broken Clouds  
Wind Chill: 36°   Ceiling: 12000
Heat Index: 43°   Visibility: 10mi
Dew Point: 24°   Wind: 13mph
Humidity: 47%   Direction: 240°WSW
Pressure: 30.23"   Gusts: NA
Location:  40.66°N, 73.73°W
Report Text: KJFK 230451Z 24011KT 10SM FEW070 BKN120 BKN250 06/M04 A3023 RMK AO2 SLP237 T00611044 400671033 $
Loading
Personal Weather Stations






























Interactive Weather Map New forecast layout! Learn more

10-Day Weather Forecast

Advertisements
Track Severe Weather on mobile